sensor_id;sensor_type;location;lat;lon;timestamp;P1;durP1;ratioP1;P2;durP2;ratioP2
22490;SDS011;11412;50.802;4.350;2024-03-17T00:01:54;5.65;;;4.22;;
22490;SDS011;11412;50.802;4.350;2024-03-17T00:04:20;4.57;;;4.18;;
22490;SDS011;11412;50.802;4.350;2024-03-17T00:06:46;5.25;;;4.05;;
22490;SDS011;11412;50.802;4.350;2024-03-17T00:09:12;4.57;;;3.95;;
22490;SDS011;11412;50.802;4.350;2024-03-17T00:11:38;7.53;;;4.80;;
22490;SDS011;11412;50.802;4.350;2024-03-17T00:14:04;4.55;;;3.78;;
22490;SDS011;11412;50.802;4.350;2024-03-17T00:16:30;6.72;;;4.32;;
22490;SDS011;11412;50.802;4.350;2024-03-17T00:18:56;4.65;;;4.25;;
22490;SDS011;11412;50.802;4.350;2024-03-17T00:21:22;6.00;;;3.95;;
22490;SDS011;11412;50.802;4.350;2024-03-17T00:23:48;5.63;;;4.10;;
22490;SDS011;11412;50.802;4.350;2024-03-17T00:26:17;6.15;;;4.35;;
22490;SDS011;11412;50.802;4.350;2024-03-17T00:28:44;4.75;;;4.10;;
22490;SDS011;11412;50.802;4.350;2024-03-17T00:31:13;6.60;;;4.18;;
22490;SDS011;11412;50.802;4.350;2024-03-17T00:33:40;3.75;;;3.45;;
22490;SDS011;11412;50.802;4.350;2024-03-17T00:36:06;5.40;;;4.03;;
22490;SDS011;11412;50.802;4.350;2024-03-17T00:38:32;4.28;;;3.88;;
22490;SDS011;11412;50.802;4.350;2024-03-17T00:40:58;5.82;;;4.05;;
22490;SDS011;11412;50.802;4.350;2024-03-17T00:43:24;3.88;;;3.53;;
22490;SDS011;11412;50.802;4.350;2024-03-17T00:45:53;5.95;;;4.20;;
22490;SDS011;11412;50.802;4.350;2024-03-17T00:48:19;4.97;;;4.35;;
22490;SDS011;11412;50.802;4.350;2024-03-17T00:50:44;7.35;;;4.65;;
22490;SDS011;11412;50.802;4.350;2024-03-17T00:53:10;4.30;;;3.90;;
22490;SDS011;11412;50.802;4.350;2024-03-17T00:55:36;6.72;;;4.22;;
22490;SDS011;11412;50.802;4.350;2024-03-17T00:58:02;5.10;;;3.95;;
22490;SDS011;11412;50.802;4.350;2024-03-17T01:00:29;7.03;;;3.75;;
22490;SDS011;11412;50.802;4.350;2024-03-17T01:02:55;6.60;;;4.05;;
22490;SDS011;11412;50.802;4.350;2024-03-17T01:05:21;5.65;;;4.35;;
22490;SDS011;11412;50.802;4.350;2024-03-17T01:07:47;4.60;;;3.83;;
22490;SDS011;11412;50.802;4.350;2024-03-17T01:10:13;4.53;;;4.07;;
22490;SDS011;11412;50.802;4.350;2024-03-17T01:12:39;6.80;;;4.40;;
22490;SDS011;11412;50.802;4.350;2024-03-17T01:15:05;5.20;;;4.32;;
22490;SDS011;11412;50.802;4.350;2024-03-17T01:17:31;7.10;;;4.60;;
22490;SDS011;11412;50.802;4.350;2024-03-17T01:19:57;5.45;;;4.35;;
22490;SDS011;11412;50.802;4.350;2024-03-17T01:22:23;5.10;;;4.38;;
22490;SDS011;11412;50.802;4.350;2024-03-17T01:24:49;6.03;;;4.30;;
22490;SDS011;11412;50.802;4.350;2024-03-17T01:27:15;6.10;;;4.32;;
22490;SDS011;11412;50.802;4.350;2024-03-17T01:29:43;8.70;;;4.72;;
22490;SDS011;11412;50.802;4.350;2024-03-17T01:32:09;7.35;;;4.90;;
22490;SDS011;11412;50.802;4.350;2024-03-17T01:34:36;6.47;;;4.18;;
22490;SDS011;11412;50.802;4.350;2024-03-17T01:37:03;4.72;;;3.95;;
22490;SDS011;11412;50.802;4.350;2024-03-17T01:39:29;6.38;;;3.88;;
22490;SDS011;11412;50.802;4.350;2024-03-17T01:41:55;5.38;;;4.30;;
22490;SDS011;11412;50.802;4.350;2024-03-17T01:44:23;4.70;;;4.18;;
22490;SDS011;11412;50.802;4.350;2024-03-17T01:46:50;7.20;;;4.97;;
22490;SDS011;11412;50.802;4.350;2024-03-17T01:49:16;5.38;;;4.35;;
22490;SDS011;11412;50.802;4.350;2024-03-17T01:51:43;7.00;;;4.38;;
22490;SDS011;11412;50.802;4.350;2024-03-17T01:54:11;4.40;;;3.88;;
22490;SDS011;11412;50.802;4.350;2024-03-17T01:56:37;6.97;;;4.45;;
22490;SDS011;11412;50.802;4.350;2024-03-17T01:59:02;5.28;;;4.20;;
22490;SDS011;11412;50.802;4.350;2024-03-17T02:01:31;8.35;;;5.03;;
22490;SDS011;11412;50.802;4.350;2024-03-17T02:03:56;5.95;;;4.75;;
22490;SDS011;11412;50.802;4.350;2024-03-17T02:06:23;7.38;;;4.53;;
22490;SDS011;11412;50.802;4.350;2024-03-17T02:08:52;4.65;;;3.92;;
22490;SDS011;11412;50.802;4.350;2024-03-17T02:13:54;5.63;;;4.28;;
22490;SDS011;11412;50.802;4.350;2024-03-17T02:16:21;5.32;;;4.32;;
22490;SDS011;11412;50.802;4.350;2024-03-17T02:18:47;6.80;;;4.20;;
22490;SDS011;11412;50.802;4.350;2024-03-17T02:21:13;6.13;;;4.38;;
22490;SDS011;11412;50.802;4.350;2024-03-17T02:23:41;7.50;;;4.22;;
22490;SDS011;11412;50.802;4.350;2024-03-17T02:26:07;6.50;;;4.28;;
22490;SDS011;11412;50.802;4.350;2024-03-17T02:28:40;4.45;;;4.05;;
22490;SDS011;11412;50.802;4.350;2024-03-17T02:31:08;5.70;;;3.85;;
22490;SDS011;11412;50.802;4.350;2024-03-17T02:33:35;6.38;;;4.28;;
22490;SDS011;11412;50.802;4.350;2024-03-17T02:36:02;5.15;;;4.55;;
22490;SDS011;11412;50.802;4.350;2024-03-17T02:38:35;7.20;;;4.13;;
22490;SDS011;11412;50.802;4.350;2024-03-17T02:41:20;5.22;;;4.07;;
22490;SDS011;11412;50.802;4.350;2024-03-17T02:43:46;7.30;;;4.28;;
22490;SDS011;11412;50.802;4.350;2024-03-17T02:46:13;4.88;;;4.00;;
22490;SDS011;11412;50.802;4.350;2024-03-17T02:48:47;3.90;;;3.50;;
22490;SDS011;11412;50.802;4.350;2024-03-17T02:51:15;4.13;;;3.72;;
22490;SDS011;11412;50.802;4.350;2024-03-17T02:53:42;7.38;;;4.28;;
22490;SDS011;11412;50.802;4.350;2024-03-17T02:56:10;6.53;;;4.07;;
22490;SDS011;11412;50.802;4.350;2024-03-17T02:58:36;4.45;;;4.05;;
22490;SDS011;11412;50.802;4.350;2024-03-17T03:01:06;3.90;;;3.50;;
22490;SDS011;11412;50.802;4.350;2024-03-17T03:03:32;9.63;;;3.85;;
22490;SDS011;11412;50.802;4.350;2024-03-17T03:05:58;4.10;;;3.80;;
22490;SDS011;11412;50.802;4.350;2024-03-17T03:08:26;5.55;;;3.85;;
22490;SDS011;11412;50.802;4.350;2024-03-17T03:10:52;6.03;;;3.88;;
22490;SDS011;11412;50.802;4.350;2024-03-17T03:13:18;8.07;;;3.60;;
22490;SDS011;11412;50.802;4.350;2024-03-17T03:15:46;5.10;;;4.38;;
22490;SDS011;11412;50.802;4.350;2024-03-17T03:18:15;4.20;;;3.72;;
22490;SDS011;11412;50.802;4.350;2024-03-17T03:20:42;4.50;;;3.85;;
22490;SDS011;11412;50.802;4.350;2024-03-17T03:23:08;5.82;;;3.85;;
22490;SDS011;11412;50.802;4.350;2024-03-17T03:25:34;5.47;;;3.80;;
22490;SDS011;11412;50.802;4.350;2024-03-17T03:28:00;6.53;;;3.53;;
22490;SDS011;11412;50.802;4.350;2024-03-17T03:30:27;4.60;;;3.90;;
22490;SDS011;11412;50.802;4.350;2024-03-17T03:32:52;4.35;;;3.75;;
22490;SDS011;11412;50.802;4.350;2024-03-17T03:35:19;4.55;;;3.85;;
22490;SDS011;11412;50.802;4.350;2024-03-17T03:37:46;7.38;;;3.80;;
22490;SDS011;11412;50.802;4.350;2024-03-17T03:40:11;5.70;;;4.25;;
22490;SDS011;11412;50.802;4.350;2024-03-17T03:42:44;5.60;;;3.80;;
22490;SDS011;11412;50.802;4.350;2024-03-17T03:45:10;4.10;;;3.70;;
22490;SDS011;11412;50.802;4.350;2024-03-17T03:47:39;5.00;;;3.65;;
22490;SDS011;11412;50.802;4.350;2024-03-17T03:50:08;4.22;;;3.80;;
22490;SDS011;11412;50.802;4.350;2024-03-17T03:52:36;5.25;;;3.95;;
22490;SDS011;11412;50.802;4.350;2024-03-17T03:55:02;6.38;;;4.35;;
22490;SDS011;11412;50.802;4.350;2024-03-17T03:57:29;3.85;;;3.25;;
22490;SDS011;11412;50.802;4.350;2024-03-17T03:59:57;4.63;;;3.75;;
22490;SDS011;11412;50.802;4.350;2024-03-17T04:02:24;4.53;;;3.70;;
22490;SDS011;11412;50.802;4.350;2024-03-17T04:04:56;6.45;;;3.40;;
22490;SDS011;11412;50.802;4.350;2024-03-17T04:07:22;5.13;;;3.65;;
22490;SDS011;11412;50.802;4.350;2024-03-17T04:09:48;4.53;;;3.67;;
22490;SDS011;11412;50.802;4.350;2024-03-17T04:12:13;6.65;;;3.97;;
22490;SDS011;11412;50.802;4.350;2024-03-17T04:14:39;5.57;;;4.18;;
22490;SDS011;11412;50.802;4.350;2024-03-17T04:17:05;7.53;;;4.57;;
22490;SDS011;11412;50.802;4.350;2024-03-17T04:19:32;5.35;;;4.57;;
22490;SDS011;11412;50.802;4.350;2024-03-17T04:21:57;5.72;;;4.50;;
22490;SDS011;11412;50.802;4.350;2024-03-17T04:24:23;7.80;;;4.47;;
22490;SDS011;11412;50.802;4.350;2024-03-17T04:26:49;4.43;;;4.03;;
22490;SDS011;11412;50.802;4.350;2024-03-17T04:29:14;5.53;;;4.40;;
22490;SDS011;11412;50.802;4.350;2024-03-17T04:31:40;8.98;;;4.55;;
22490;SDS011;11412;50.802;4.350;2024-03-17T04:34:07;5.25;;;4.65;;
22490;SDS011;11412;50.802;4.350;2024-03-17T04:36:32;6.68;;;4.30;;
22490;SDS011;11412;50.802;4.350;2024-03-17T04:38:58;5.15;;;4.50;;
22490;SDS011;11412;50.802;4.350;2024-03-17T04:41:24;6.47;;;4.47;;
22490;SDS011;11412;50.802;4.350;2024-03-17T04:43:49;9.38;;;4.95;;
22490;SDS011;11412;50.802;4.350;2024-03-17T04:46:15;6.38;;;4.88;;
22490;SDS011;11412;50.802;4.350;2024-03-17T04:48:41;5.70;;;4.50;;
22490;SDS011;11412;50.802;4.350;2024-03-17T04:51:06;6.10;;;4.75;;
22490;SDS011;11412;50.802;4.350;2024-03-17T04:53:32;5.07;;;4.57;;
22490;SDS011;11412;50.802;4.350;2024-03-17T04:56:01;7.47;;;4.38;;
22490;SDS011;11412;50.802;4.350;2024-03-17T04:58:29;6.18;;;4.32;;
22490;SDS011;11412;50.802;4.350;2024-03-17T05:01:02;5.88;;;4.68;;
22490;SDS011;11412;50.802;4.350;2024-03-17T05:03:35;5.45;;;3.95;;
22490;SDS011;11412;50.802;4.350;2024-03-17T05:06:03;8.90;;;4.75;;
22490;SDS011;11412;50.802;4.350;2024-03-17T05:08:30;6.63;;;4.15;;
22490;SDS011;11412;50.802;4.350;2024-03-17T05:10:57;7.88;;;4.47;;
22490;SDS011;11412;50.802;4.350;2024-03-17T05:13:27;4.32;;;3.80;;
22490;SDS011;11412;50.802;4.350;2024-03-17T05:15:53;4.40;;;4.00;;
22490;SDS011;11412;50.802;4.350;2024-03-17T05:18:20;6.50;;;4.57;;
22490;SDS011;11412;50.802;4.350;2024-03-17T05:20:47;5.40;;;4.35;;
22490;SDS011;11412;50.802;4.350;2024-03-17T05:23:29;6.63;;;4.80;;
22490;SDS011;11412;50.802;4.350;2024-03-17T05:25:57;4.90;;;4.32;;
22490;SDS011;11412;50.802;4.350;2024-03-17T05:28:24;8.73;;;3.72;;
22490;SDS011;11412;50.802;4.350;2024-03-17T05:30:50;7.45;;;4.65;;
22490;SDS011;11412;50.802;4.350;2024-03-17T05:33:17;6.00;;;4.38;;
22490;SDS011;11412;50.802;4.350;2024-03-17T05:35:50;5.78;;;4.15;;
22490;SDS011;11412;50.802;4.350;2024-03-17T05:38:18;6.32;;;4.10;;
22490;SDS011;11412;50.802;4.350;2024-03-17T05:40:52;5.65;;;4.25;;
22490;SDS011;11412;50.802;4.350;2024-03-17T05:43:21;6.05;;;4.68;;
22490;SDS011;11412;50.802;4.350;2024-03-17T05:45:49;7.10;;;4.32;;
22490;SDS011;11412;50.802;4.350;2024-03-17T05:48:16;7.40;;;4.28;;
22490;SDS011;11412;50.802;4.350;2024-03-17T05:50:42;6.63;;;4.32;;
22490;SDS011;11412;50.802;4.350;2024-03-17T05:53:08;4.45;;;4.05;;
22490;SDS011;11412;50.802;4.350;2024-03-17T05:55:36;5.63;;;4.70;;
22490;SDS011;11412;50.802;4.350;2024-03-17T05:58:06;6.88;;;4.25;;
22490;SDS011;11412;50.802;4.350;2024-03-17T06:00:34;6.30;;;4.68;;
22490;SDS011;11412;50.802;4.350;2024-03-17T06:03:00;5.60;;;4.07;;
22490;SDS011;11412;50.802;4.350;2024-03-17T06:05:26;4.82;;;4.05;;
22490;SDS011;11412;50.802;4.350;2024-03-17T06:07:53;7.25;;;4.32;;
22490;SDS011;11412;50.802;4.350;2024-03-17T06:10:18;6.88;;;4.22;;
22490;SDS011;11412;50.802;4.350;2024-03-17T06:12:49;5.80;;;4.03;;
22490;SDS011;11412;50.802;4.350;2024-03-17T06:15:15;6.43;;;4.60;;
22490;SDS011;11412;50.802;4.350;2024-03-17T06:17:41;7.20;;;4.40;;
22490;SDS011;11412;50.802;4.350;2024-03-17T06:20:07;5.75;;;4.72;;
22490;SDS011;11412;50.802;4.350;2024-03-17T06:22:36;8.25;;;4.70;;
22490;SDS011;11412;50.802;4.350;2024-03-17T06:25:02;7.97;;;4.75;;
22490;SDS011;11412;50.802;4.350;2024-03-17T06:27:29;8.05;;;4.50;;
22490;SDS011;11412;50.802;4.350;2024-03-17T06:29:56;8.65;;;5.05;;
22490;SDS011;11412;50.802;4.350;2024-03-17T06:32:22;7.78;;;4.45;;
22490;SDS011;11412;50.802;4.350;2024-03-17T06:34:47;7.20;;;4.55;;
22490;SDS011;11412;50.802;4.350;2024-03-17T06:37:13;8.48;;;4.88;;
22490;SDS011;11412;50.802;4.350;2024-03-17T06:39:39;9.18;;;4.47;;
22490;SDS011;11412;50.802;4.350;2024-03-17T06:42:04;7.15;;;4.40;;
22490;SDS011;11412;50.802;4.350;2024-03-17T06:44:30;8.73;;;4.93;;
22490;SDS011;11412;50.802;4.350;2024-03-17T06:46:59;7.53;;;4.63;;
22490;SDS011;11412;50.802;4.350;2024-03-17T06:49:25;7.35;;;4.47;;
22490;SDS011;11412;50.802;4.350;2024-03-17T06:51:50;10.07;;;4.90;;
22490;SDS011;11412;50.802;4.350;2024-03-17T06:54:16;5.32;;;4.38;;
22490;SDS011;11412;50.802;4.350;2024-03-17T06:56:42;6.93;;;4.53;;
22490;SDS011;11412;50.802;4.350;2024-03-17T06:59:09;6.05;;;3.88;;
22490;SDS011;11412;50.802;4.350;2024-03-17T07:01:35;9.38;;;4.50;;
22490;SDS011;11412;50.802;4.350;2024-03-17T07:04:01;6.80;;;4.47;;
22490;SDS011;11412;50.802;4.350;2024-03-17T07:06:26;4.60;;;3.72;;
22490;SDS011;11412;50.802;4.350;2024-03-17T07:08:52;4.40;;;3.88;;
22490;SDS011;11412;50.802;4.350;2024-03-17T07:11:18;8.93;;;4.20;;
22490;SDS011;11412;50.802;4.350;2024-03-17T07:13:43;4.82;;;4.32;;
22490;SDS011;11412;50.802;4.350;2024-03-17T07:16:09;5.43;;;4.57;;
22490;SDS011;11412;50.802;4.350;2024-03-17T07:18:35;8.77;;;4.00;;
22490;SDS011;11412;50.802;4.350;2024-03-17T07:21:02;8.50;;;3.88;;
22490;SDS011;11412;50.802;4.350;2024-03-17T07:23:29;4.80;;;3.83;;
22490;SDS011;11412;50.802;4.350;2024-03-17T07:25:57;4.38;;;3.92;;
22490;SDS011;11412;50.802;4.350;2024-03-17T07:28:25;4.90;;;4.03;;
22490;SDS011;11412;50.802;4.350;2024-03-17T07:30:53;5.75;;;4.20;;
22490;SDS011;11412;50.802;4.350;2024-03-17T07:33:20;8.40;;;4.90;;
22490;SDS011;11412;50.802;4.350;2024-03-17T07:35:52;6.88;;;4.22;;
22490;SDS011;11412;50.802;4.350;2024-03-17T07:38:23;5.50;;;4.13;;
22490;SDS011;11412;50.802;4.350;2024-03-17T07:41:05;6.38;;;3.92;;
22490;SDS011;11412;50.802;4.350;2024-03-17T07:43:33;4.18;;;3.63;;
22490;SDS011;11412;50.802;4.350;2024-03-17T07:46:04;5.35;;;4.13;;
22490;SDS011;11412;50.802;4.350;2024-03-17T07:48:34;4.38;;;3.80;;
22490;SDS011;11412;50.802;4.350;2024-03-17T07:51:05;4.90;;;3.85;;
22490;SDS011;11412;50.802;4.350;2024-03-17T07:53:38;6.32;;;3.80;;
22490;SDS011;11412;50.802;4.350;2024-03-17T07:56:08;5.10;;;3.47;;
22490;SDS011;11412;50.802;4.350;2024-03-17T07:58:35;4.57;;;3.40;;
22490;SDS011;11412;50.802;4.350;2024-03-17T08:01:09;7.57;;;4.15;;
22490;SDS011;11412;50.802;4.350;2024-03-17T08:03:39;7.22;;;4.70;;
22490;SDS011;11412;50.802;4.350;2024-03-17T08:06:06;4.97;;;3.83;;
22490;SDS011;11412;50.802;4.350;2024-03-17T08:08:33;4.15;;;3.13;;
22490;SDS011;11412;50.802;4.350;2024-03-17T08:10:59;4.20;;;3.58;;
22490;SDS011;11412;50.802;4.350;2024-03-17T08:13:28;4.25;;;3.78;;
22490;SDS011;11412;50.802;4.350;2024-03-17T08:16:02;7.53;;;3.90;;
22490;SDS011;11412;50.802;4.350;2024-03-17T08:18:33;3.78;;;3.30;;
22490;SDS011;11412;50.802;4.350;2024-03-17T08:21:00;4.75;;;3.40;;
22490;SDS011;11412;50.802;4.350;2024-03-17T08:23:26;4.47;;;3.20;;
22490;SDS011;11412;50.802;4.350;2024-03-17T08:28:19;4.03;;;3.17;;
22490;SDS011;11412;50.802;4.350;2024-03-17T08:30:54;4.80;;;3.15;;
22490;SDS011;11412;50.802;4.350;2024-03-17T08:33:21;5.05;;;3.47;;
22490;SDS011;11412;50.802;4.350;2024-03-17T08:35:59;6.35;;;3.00;;
22490;SDS011;11412;50.802;4.350;2024-03-17T08:38:29;5.47;;;3.30;;
22490;SDS011;11412;50.802;4.350;2024-03-17T08:40:56;5.28;;;3.20;;
22490;SDS011;11412;50.802;4.350;2024-03-17T08:43:23;4.28;;;3.10;;
22490;SDS011;11412;50.802;4.350;2024-03-17T08:46:02;7.97;;;4.22;;
22490;SDS011;11412;50.802;4.350;2024-03-17T08:48:30;6.30;;;3.78;;
22490;SDS011;11412;50.802;4.350;2024-03-17T08:50:58;5.72;;;3.17;;
22490;SDS011;11412;50.802;4.350;2024-03-17T08:53:24;5.60;;;3.60;;
22490;SDS011;11412;50.802;4.350;2024-03-17T08:55:51;4.60;;;3.05;;
22490;SDS011;11412;50.802;4.350;2024-03-17T08:58:18;3.50;;;3.08;;
22490;SDS011;11412;50.802;4.350;2024-03-17T09:00:44;5.65;;;3.10;;
22490;SDS011;11412;50.802;4.350;2024-03-17T09:03:10;3.63;;;3.30;;
22490;SDS011;11412;50.802;4.350;2024-03-17T09:05:37;6.88;;;3.45;;
22490;SDS011;11412;50.802;4.350;2024-03-17T09:08:19;4.95;;;3.13;;
22490;SDS011;11412;50.802;4.350;2024-03-17T09:10:47;3.88;;;2.95;;
22490;SDS011;11412;50.802;4.350;2024-03-17T09:13:14;4.05;;;2.88;;
22490;SDS011;11412;50.802;4.350;2024-03-17T09:15:51;3.45;;;2.97;;
22490;SDS011;11412;50.802;4.350;2024-03-17T09:18:27;3.47;;;2.85;;
22490;SDS011;11412;50.802;4.350;2024-03-17T09:23:27;4.80;;;3.08;;
22490;SDS011;11412;50.802;4.350;2024-03-17T09:26:01;8.07;;;3.20;;
22490;SDS011;11412;50.802;4.350;2024-03-17T09:28:27;3.63;;;2.90;;
22490;SDS011;11412;50.802;4.350;2024-03-17T09:30:53;7.40;;;2.65;;
22490;SDS011;11412;50.802;4.350;2024-03-17T09:33:20;5.35;;;3.30;;
22490;SDS011;11412;50.802;4.350;2024-03-17T09:36:05;4.43;;;3.00;;
22490;SDS011;11412;50.802;4.350;2024-03-17T09:38:32;4.30;;;3.10;;
22490;SDS011;11412;50.802;4.350;2024-03-17T09:40:59;6.32;;;2.75;;
22490;SDS011;11412;50.802;4.350;2024-03-17T09:43:29;5.22;;;2.92;;
22490;SDS011;11412;50.802;4.350;2024-03-17T09:45:57;5.55;;;2.70;;
22490;SDS011;11412;50.802;4.350;2024-03-17T09:48:23;4.13;;;2.58;;
22490;SDS011;11412;50.802;4.350;2024-03-17T09:51:00;4.55;;;2.85;;
22490;SDS011;11412;50.802;4.350;2024-03-17T09:53:28;5.72;;;3.28;;
22490;SDS011;11412;50.802;4.350;2024-03-17T09:55:58;5.28;;;2.72;;
22490;SDS011;11412;50.802;4.350;2024-03-17T09:58:26;5.93;;;2.67;;
22490;SDS011;11412;50.802;4.350;2024-03-17T10:00:52;7.05;;;2.92;;
22490;SDS011;11412;50.802;4.350;2024-03-17T10:06:24;5.10;;;2.92;;
22490;SDS011;11412;50.802;4.350;2024-03-17T10:08:54;4.57;;;2.70;;
22490;SDS011;11412;50.802;4.350;2024-03-17T10:11:35;5.78;;;3.30;;
22490;SDS011;11412;50.802;4.350;2024-03-17T10:14:05;3.65;;;2.63;;
22490;SDS011;11412;50.802;4.350;2024-03-17T10:16:33;4.32;;;2.90;;
22490;SDS011;11412;50.802;4.350;2024-03-17T10:19:09;5.10;;;2.90;;
22490;SDS011;11412;50.802;4.350;2024-03-17T10:21:46;4.28;;;2.65;;
22490;SDS011;11412;50.802;4.350;2024-03-17T10:24:13;4.93;;;2.97;;
22490;SDS011;11412;50.802;4.350;2024-03-17T10:26:50;4.82;;;2.90;;
22490;SDS011;11412;50.802;4.350;2024-03-17T10:31:53;4.60;;;2.88;;
22490;SDS011;11412;50.802;4.350;2024-03-17T10:34:20;6.50;;;2.40;;
22490;SDS011;11412;50.802;4.350;2024-03-17T10:36:50;5.60;;;2.88;;
22490;SDS011;11412;50.802;4.350;2024-03-17T10:39:22;4.65;;;2.80;;
22490;SDS011;11412;50.802;4.350;2024-03-17T10:41:56;5.65;;;2.83;;
22490;SDS011;11412;50.802;4.350;2024-03-17T10:44:24;5.30;;;2.78;;
22490;SDS011;11412;50.802;4.350;2024-03-17T10:46:52;2.67;;;2.28;;
22490;SDS011;11412;50.802;4.350;2024-03-17T10:49:21;6.75;;;2.80;;
22490;SDS011;11412;50.802;4.350;2024-03-17T10:51:49;5.43;;;2.75;;
22490;SDS011;11412;50.802;4.350;2024-03-17T10:54:21;4.80;;;2.92;;
22490;SDS011;11412;50.802;4.350;2024-03-17T10:56:57;7.82;;;2.63;;
22490;SDS011;11412;50.802;4.350;2024-03-17T10:59:40;2.83;;;2.55;;
22490;SDS011;11412;50.802;4.350;2024-03-17T11:02:15;5.80;;;2.45;;
22490;SDS011;11412;50.802;4.350;2024-03-17T11:04:54;4.38;;;2.50;;
22490;SDS011;11412;50.802;4.350;2024-03-17T11:07:22;4.15;;;2.53;;
22490;SDS011;11412;50.802;4.350;2024-03-17T11:09:50;4.57;;;2.30;;
22490;SDS011;11412;50.802;4.350;2024-03-17T11:20:36;3.38;;;2.22;;
22490;SDS011;11412;50.802;4.350;2024-03-17T11:23:04;4.60;;;1.92;;
22490;SDS011;11412;50.802;4.350;2024-03-17T11:28:07;3.35;;;1.75;;
22490;SDS011;11412;50.802;4.350;2024-03-17T11:38:53;4.88;;;2.45;;
22490;SDS011;11412;50.802;4.350;2024-03-17T11:44:14;2.47;;;1.38;;
22490;SDS011;11412;50.802;4.350;2024-03-17T11:49:20;2.97;;;1.50;;
22490;SDS011;11412;50.802;4.350;2024-03-17T11:51:47;3.95;;;1.33;;
22490;SDS011;11412;50.802;4.350;2024-03-17T11:54:17;6.32;;;1.98;;
22490;SDS011;11412;50.802;4.350;2024-03-17T11:56:46;7.63;;;1.77;;
22490;SDS011;11412;50.802;4.350;2024-03-17T11:59:13;6.53;;;1.80;;
22490;SDS011;11412;50.802;4.350;2024-03-17T12:01:42;3.60;;;1.70;;
22490;SDS011;11412;50.802;4.350;2024-03-17T12:04:20;3.28;;;1.20;;
22490;SDS011;11412;50.802;4.350;2024-03-17T12:06:47;3.80;;;1.40;;
22490;SDS011;11412;50.802;4.350;2024-03-17T12:09:20;4.72;;;1.80;;
22490;SDS011;11412;50.802;4.350;2024-03-17T12:12:08;3.28;;;1.50;;
22490;SDS011;11412;50.802;4.350;2024-03-17T12:14:36;3.90;;;1.40;;
22490;SDS011;11412;50.802;4.350;2024-03-17T12:17:03;2.83;;;1.17;;
22490;SDS011;11412;50.802;4.350;2024-03-17T12:19:33;3.75;;;1.40;;
22490;SDS011;11412;50.802;4.350;2024-03-17T12:21:59;4.30;;;1.42;;
22490;SDS011;11412;50.802;4.350;2024-03-17T12:24:27;6.28;;;1.77;;
22490;SDS011;11412;50.802;4.350;2024-03-17T12:26:57;3.42;;;1.55;;
22490;SDS011;11412;50.802;4.350;2024-03-17T12:29:34;3.72;;;1.35;;
22490;SDS011;11412;50.802;4.350;2024-03-17T12:32:03;4.70;;;1.88;;
22490;SDS011;11412;50.802;4.350;2024-03-17T12:34:33;3.30;;;1.05;;
22490;SDS011;11412;50.802;4.350;2024-03-17T12:36:59;5.40;;;1.20;;
22490;SDS011;11412;50.802;4.350;2024-03-17T12:39:29;3.28;;;1.30;;
22490;SDS011;11412;50.802;4.350;2024-03-17T12:44:27;2.53;;;1.45;;
22490;SDS011;11412;50.802;4.350;2024-03-17T12:46:56;5.15;;;1.90;;
22490;SDS011;11412;50.802;4.350;2024-03-17T12:49:25;4.10;;;2.00;;
22490;SDS011;11412;50.802;4.350;2024-03-17T12:51:54;4.80;;;1.90;;
22490;SDS011;11412;50.802;4.350;2024-03-17T12:54:21;5.80;;;1.35;;
22490;SDS011;11412;50.802;4.350;2024-03-17T12:56:51;4.60;;;1.40;;
22490;SDS011;11412;50.802;4.350;2024-03-17T12:59:46;3.30;;;1.90;;
22490;SDS011;11412;50.802;4.350;2024-03-17T13:02:21;3.40;;;1.25;;
22490;SDS011;11412;50.802;4.350;2024-03-17T13:05:04;5.22;;;1.38;;
22490;SDS011;11412;50.802;4.350;2024-03-17T13:07:43;2.08;;;1.08;;
22490;SDS011;11412;50.802;4.350;2024-03-17T13:10:12;4.78;;;1.58;;
22490;SDS011;11412;50.802;4.350;2024-03-17T13:12:39;3.15;;;1.25;;
22490;SDS011;11412;50.802;4.350;2024-03-17T13:15:06;4.28;;;1.15;;
22490;SDS011;11412;50.802;4.350;2024-03-17T13:17:36;4.40;;;1.35;;
22490;SDS011;11412;50.802;4.350;2024-03-17T13:20:02;4.38;;;1.30;;
22490;SDS011;11412;50.802;4.350;2024-03-17T13:22:29;5.10;;;2.08;;
22490;SDS011;11412;50.802;4.350;2024-03-17T13:24:55;1.63;;;1.35;;
22490;SDS011;11412;50.802;4.350;2024-03-17T13:27:21;4.63;;;1.13;;
22490;SDS011;11412;50.802;4.350;2024-03-17T13:29:48;3.65;;;1.50;;
22490;SDS011;11412;50.802;4.350;2024-03-17T13:32:14;4.25;;;1.45;;
22490;SDS011;11412;50.802;4.350;2024-03-17T13:34:40;3.75;;;1.45;;
22490;SDS011;11412;50.802;4.350;2024-03-17T13:37:06;4.03;;;1.42;;
22490;SDS011;11412;50.802;4.350;2024-03-17T13:39:32;4.60;;;1.80;;
22490;SDS011;11412;50.802;4.350;2024-03-17T13:41:59;6.53;;;1.95;;
22490;SDS011;11412;50.802;4.350;2024-03-17T13:44:28;4.57;;;1.55;;
22490;SDS011;11412;50.802;4.350;2024-03-17T13:46:56;4.05;;;1.67;;
22490;SDS011;11412;50.802;4.350;2024-03-17T13:49:22;5.35;;;1.63;;
22490;SDS011;11412;50.802;4.350;2024-03-17T13:51:48;5.82;;;1.90;;
22490;SDS011;11412;50.802;4.350;2024-03-17T13:54:14;6.82;;;1.45;;
22490;SDS011;11412;50.802;4.350;2024-03-17T13:56:40;3.65;;;1.60;;
22490;SDS011;11412;50.802;4.350;2024-03-17T13:59:06;3.35;;;1.42;;
22490;SDS011;11412;50.802;4.350;2024-03-17T14:01:33;4.40;;;1.75;;
22490;SDS011;11412;50.802;4.350;2024-03-17T14:03:59;5.63;;;2.50;;
22490;SDS011;11412;50.802;4.350;2024-03-17T14:06:24;6.45;;;2.10;;
22490;SDS011;11412;50.802;4.350;2024-03-17T14:08:50;3.58;;;1.92;;
22490;SDS011;11412;50.802;4.350;2024-03-17T14:11:16;6.38;;;2.00;;
22490;SDS011;11412;50.802;4.350;2024-03-17T14:13:42;3.55;;;2.15;;
22490;SDS011;11412;50.802;4.350;2024-03-17T14:16:07;4.82;;;1.85;;
22490;SDS011;11412;50.802;4.350;2024-03-17T14:18:33;6.47;;;2.25;;
22490;SDS011;11412;50.802;4.350;2024-03-17T14:20:59;6.22;;;2.42;;
22490;SDS011;11412;50.802;4.350;2024-03-17T14:23:24;3.97;;;2.25;;
22490;SDS011;11412;50.802;4.350;2024-03-17T14:25:50;4.35;;;1.35;;
22490;SDS011;11412;50.802;4.350;2024-03-17T14:28:17;6.38;;;1.88;;
22490;SDS011;11412;50.802;4.350;2024-03-17T14:30:44;6.50;;;2.42;;
22490;SDS011;11412;50.802;4.350;2024-03-17T14:33:09;2.67;;;1.60;;
22490;SDS011;11412;50.802;4.350;2024-03-17T14:35:35;3.58;;;1.70;;
22490;SDS011;11412;50.802;4.350;2024-03-17T14:38:02;4.57;;;1.52;;
22490;SDS011;11412;50.802;4.350;2024-03-17T14:40:29;8.10;;;2.10;;
22490;SDS011;11412;50.802;4.350;2024-03-17T14:42:55;3.30;;;1.30;;
22490;SDS011;11412;50.802;4.350;2024-03-17T14:45:21;3.47;;;1.10;;
22490;SDS011;11412;50.802;4.350;2024-03-17T14:47:50;6.57;;;2.03;;
22490;SDS011;11412;50.802;4.350;2024-03-17T14:50:17;2.10;;;1.17;;
22490;SDS011;11412;50.802;4.350;2024-03-17T14:52:43;4.18;;;1.40;;
22490;SDS011;11412;50.802;4.350;2024-03-17T14:55:10;1.38;;;0.93;;
22490;SDS011;11412;50.802;4.350;2024-03-17T14:57:37;4.68;;;1.63;;
22490;SDS011;11412;50.802;4.350;2024-03-17T15:00:06;7.40;;;1.70;;
22490;SDS011;11412;50.802;4.350;2024-03-17T15:02:41;5.53;;;1.95;;
22490;SDS011;11412;50.802;4.350;2024-03-17T15:05:13;3.65;;;1.65;;
22490;SDS011;11412;50.802;4.350;2024-03-17T15:07:40;9.75;;;1.65;;
22490;SDS011;11412;50.802;4.350;2024-03-17T15:10:06;3.95;;;1.10;;
22490;SDS011;11412;50.802;4.350;2024-03-17T15:12:32;5.07;;;1.20;;
22490;SDS011;11412;50.802;4.350;2024-03-17T15:14:58;3.42;;;1.45;;
22490;SDS011;11412;50.802;4.350;2024-03-17T15:17:24;2.70;;;1.33;;
22490;SDS011;11412;50.802;4.350;2024-03-17T15:19:53;3.75;;;1.25;;
22490;SDS011;11412;50.802;4.350;2024-03-17T15:22:19;3.92;;;1.58;;
22490;SDS011;11412;50.802;4.350;2024-03-17T15:24:46;5.28;;;1.40;;
22490;SDS011;11412;50.802;4.350;2024-03-17T15:27:13;2.50;;;1.30;;
22490;SDS011;11412;50.802;4.350;2024-03-17T15:29:40;4.20;;;1.20;;
22490;SDS011;11412;50.802;4.350;2024-03-17T15:32:06;4.18;;;1.63;;
22490;SDS011;11412;50.802;4.350;2024-03-17T15:37:02;2.92;;;1.40;;